sensor_id;sensor_type;location;lat;lon;timestamp;P1;durP1;ratioP1;P2;durP2;ratioP2
40591;SDS011;26301;42.832;23.918;2023-06-14T00:02:21;35.75;;;12.00;;
40591;SDS011;26301;42.832;23.918;2023-06-14T00:04:47;35.40;;;12.25;;
40591;SDS011;26301;42.832;23.918;2023-06-14T00:07:13;18.20;;;11.82;;
40591;SDS011;26301;42.832;23.918;2023-06-14T00:09:41;14.80;;;11.98;;
40591;SDS011;26301;42.832;23.918;2023-06-14T00:12:08;31.23;;;12.43;;
40591;SDS011;26301;42.832;23.918;2023-06-14T00:14:34;34.42;;;11.23;;
40591;SDS011;26301;42.832;23.918;2023-06-14T00:17:01;54.85;;;11.25;;
40591;SDS011;26301;42.832;23.918;2023-06-14T00:19:28;43.67;;;11.65;;
40591;SDS011;26301;42.832;23.918;2023-06-14T00:21:56;15.32;;;10.50;;
40591;SDS011;26301;42.832;23.918;2023-06-14T00:24:22;21.58;;;10.70;;
40591;SDS011;26301;42.832;23.918;2023-06-14T00:26:48;14.60;;;10.32;;
40591;SDS011;26301;42.832;23.918;2023-06-14T00:29:14;15.30;;;10.82;;
40591;SDS011;26301;42.832;23.918;2023-06-14T00:31:40;13.50;;;10.30;;
40591;SDS011;26301;42.832;23.918;2023-06-14T00:34:07;12.73;;;10.68;;
40591;SDS011;26301;42.832;23.918;2023-06-14T00:36:34;13.77;;;10.15;;
40591;SDS011;26301;42.832;23.918;2023-06-14T00:39:01;14.18;;;10.77;;
40591;SDS011;26301;42.832;23.918;2023-06-14T00:41:26;13.45;;;10.23;;
40591;SDS011;26301;42.832;23.918;2023-06-14T00:43:53;14.57;;;10.93;;
40591;SDS011;26301;42.832;23.918;2023-06-14T00:46:22;13.18;;;11.05;;
40591;SDS011;26301;42.832;23.918;2023-06-14T00:48:48;14.85;;;11.20;;
40591;SDS011;26301;42.832;23.918;2023-06-14T00:51:14;11.85;;;9.57;;
40591;SDS011;26301;42.832;23.918;2023-06-14T00:53:41;11.52;;;9.05;;
40591;SDS011;26301;42.832;23.918;2023-06-14T00:56:11;11.95;;;9.63;;
40591;SDS011;26301;42.832;23.918;2023-06-14T00:58:38;12.30;;;9.60;;
40591;SDS011;26301;42.832;23.918;2023-06-14T01:01:05;14.10;;;10.30;;
40591;SDS011;26301;42.832;23.918;2023-06-14T01:03:31;11.82;;;9.82;;
40591;SDS011;26301;42.832;23.918;2023-06-14T01:09:03;11.18;;;8.82;;
40591;SDS011;26301;42.832;23.918;2023-06-14T01:11:38;11.15;;;9.15;;
40591;SDS011;26301;42.832;23.918;2023-06-14T01:14:13;13.05;;;9.75;;
40591;SDS011;26301;42.832;23.918;2023-06-14T01:16:41;11.63;;;9.27;;
40591;SDS011;26301;42.832;23.918;2023-06-14T01:19:09;11.45;;;8.35;;
40591;SDS011;26301;42.832;23.918;2023-06-14T01:21:38;10.55;;;8.63;;
40591;SDS011;26301;42.832;23.918;2023-06-14T01:24:06;9.73;;;8.73;;
40591;SDS011;26301;42.832;23.918;2023-06-14T01:26:34;9.82;;;8.50;;
40591;SDS011;26301;42.832;23.918;2023-06-14T01:29:03;9.70;;;7.93;;
40591;SDS011;26301;42.832;23.918;2023-06-14T01:31:30;9.77;;;8.23;;
40591;SDS011;26301;42.832;23.918;2023-06-14T01:34:06;12.18;;;8.50;;
40591;SDS011;26301;42.832;23.918;2023-06-14T01:36:32;10.32;;;8.00;;
40591;SDS011;26301;42.832;23.918;2023-06-14T01:39:00;10.88;;;7.63;;
40591;SDS011;26301;42.832;23.918;2023-06-14T01:41:27;10.52;;;8.60;;
40591;SDS011;26301;42.832;23.918;2023-06-14T01:43:55;10.23;;;8.77;;
40591;SDS011;26301;42.832;23.918;2023-06-14T01:46:22;9.05;;;8.02;;
40591;SDS011;26301;42.832;23.918;2023-06-14T01:48:49;9.80;;;7.78;;
40591;SDS011;26301;42.832;23.918;2023-06-14T01:51:15;9.43;;;7.63;;
40591;SDS011;26301;42.832;23.918;2023-06-14T01:53:40;10.77;;;7.28;;
40591;SDS011;26301;42.832;23.918;2023-06-14T01:56:07;8.82;;;7.22;;
40591;SDS011;26301;42.832;23.918;2023-06-14T01:58:33;8.80;;;7.68;;
40591;SDS011;26301;42.832;23.918;2023-06-14T02:01:01;10.32;;;7.57;;
40591;SDS011;26301;42.832;23.918;2023-06-14T02:03:27;10.38;;;8.77;;
40591;SDS011;26301;42.832;23.918;2023-06-14T02:05:53;9.85;;;8.07;;
40591;SDS011;26301;42.832;23.918;2023-06-14T02:08:20;11.50;;;8.02;;
40591;SDS011;26301;42.832;23.918;2023-06-14T02:10:46;9.65;;;7.90;;
40591;SDS011;26301;42.832;23.918;2023-06-14T02:13:12;8.88;;;7.70;;
40591;SDS011;26301;42.832;23.918;2023-06-14T02:15:39;18.60;;;8.45;;
40591;SDS011;26301;42.832;23.918;2023-06-14T02:18:08;122.38;;;8.45;;
40591;SDS011;26301;42.832;23.918;2023-06-14T02:20:37;111.82;;;7.63;;
40591;SDS011;26301;42.832;23.918;2023-06-14T02:23:06;214.93;;;8.30;;
40591;SDS011;26301;42.832;23.918;2023-06-14T02:25:32;397.73;;;12.48;;
40591;SDS011;26301;42.832;23.918;2023-06-14T02:27:58;262.88;;;9.25;;
40591;SDS011;26301;42.832;23.918;2023-06-14T02:30:25;277.77;;;9.20;;
40591;SDS011;26301;42.832;23.918;2023-06-14T02:32:51;323.77;;;11.10;;
40591;SDS011;26301;42.832;23.918;2023-06-14T02:35:20;136.77;;;6.13;;
40591;SDS011;26301;42.832;23.918;2023-06-14T02:37:49;121.63;;;6.10;;
40591;SDS011;26301;42.832;23.918;2023-06-14T02:40:16;182.10;;;7.53;;
40591;SDS011;26301;42.832;23.918;2023-06-14T02:42:42;224.55;;;8.45;;
40591;SDS011;26301;42.832;23.918;2023-06-14T02:45:10;193.88;;;7.20;;
40591;SDS011;26301;42.832;23.918;2023-06-14T02:47:36;340.02;;;10.02;;
40591;SDS011;26301;42.832;23.918;2023-06-14T02:50:02;205.05;;;8.13;;
40591;SDS011;26301;42.832;23.918;2023-06-14T02:52:29;299.80;;;10.85;;
40591;SDS011;26301;42.832;23.918;2023-06-14T02:54:55;127.20;;;7.47;;
40591;SDS011;26301;42.832;23.918;2023-06-14T02:57:21;214.02;;;8.75;;
40591;SDS011;26301;42.832;23.918;2023-06-14T02:59:48;158.70;;;6.88;;
40591;SDS011;26301;42.832;23.918;2023-06-14T03:02:14;269.35;;;9.07;;
40591;SDS011;26301;42.832;23.918;2023-06-14T03:04:40;191.80;;;7.57;;
40591;SDS011;26301;42.832;23.918;2023-06-14T03:07:09;136.60;;;5.97;;
40591;SDS011;26301;42.832;23.918;2023-06-14T03:09:37;134.90;;;7.28;;
40591;SDS011;26301;42.832;23.918;2023-06-14T03:12:04;245.10;;;9.25;;
40591;SDS011;26301;42.832;23.918;2023-06-14T03:14:35;188.47;;;8.07;;
40591;SDS011;26301;42.832;23.918;2023-06-14T03:17:02;251.23;;;9.57;;
40591;SDS011;26301;42.832;23.918;2023-06-14T03:19:32;186.65;;;7.95;;
40591;SDS011;26301;42.832;23.918;2023-06-14T03:21:58;129.38;;;6.72;;
40591;SDS011;26301;42.832;23.918;2023-06-14T03:24:28;127.18;;;6.57;;
40591;SDS011;26301;42.832;23.918;2023-06-14T03:26:54;158.00;;;8.13;;
40591;SDS011;26301;42.832;23.918;2023-06-14T03:29:21;163.57;;;7.53;;
40591;SDS011;26301;42.832;23.918;2023-06-14T03:31:58;131.35;;;6.22;;
40591;SDS011;26301;42.832;23.918;2023-06-14T03:34:25;216.50;;;8.25;;
40591;SDS011;26301;42.832;23.918;2023-06-14T03:36:52;250.02;;;8.77;;
40591;SDS011;26301;42.832;23.918;2023-06-14T03:39:18;194.55;;;8.05;;
40591;SDS011;26301;42.832;23.918;2023-06-14T03:41:45;236.95;;;8.45;;
40591;SDS011;26301;42.832;23.918;2023-06-14T03:44:13;137.40;;;7.38;;
40591;SDS011;26301;42.832;23.918;2023-06-14T03:46:42;111.97;;;6.93;;
40591;SDS011;26301;42.832;23.918;2023-06-14T03:49:11;210.52;;;8.82;;
40591;SDS011;26301;42.832;23.918;2023-06-14T03:51:37;174.50;;;6.57;;
40591;SDS011;26301;42.832;23.918;2023-06-14T03:54:05;152.02;;;7.35;;
40591;SDS011;26301;42.832;23.918;2023-06-14T03:56:32;106.05;;;6.65;;
40591;SDS011;26301;42.832;23.918;2023-06-14T03:58:58;230.07;;;9.02;;
40591;SDS011;26301;42.832;23.918;2023-06-14T04:01:24;154.85;;;7.65;;
40591;SDS011;26301;42.832;23.918;2023-06-14T04:03:57;141.60;;;7.00;;
40591;SDS011;26301;42.832;23.918;2023-06-14T04:06:24;115.38;;;6.28;;
40591;SDS011;26301;42.832;23.918;2023-06-14T04:11:26;92.30;;;6.13;;
40591;SDS011;26301;42.832;23.918;2023-06-14T04:13:52;180.43;;;6.80;;
40591;SDS011;26301;42.832;23.918;2023-06-14T04:16:19;106.60;;;5.95;;
40591;SDS011;26301;42.832;23.918;2023-06-14T04:18:48;240.15;;;7.93;;
40591;SDS011;26301;42.832;23.918;2023-06-14T04:21:17;126.10;;;6.32;;
40591;SDS011;26301;42.832;23.918;2023-06-14T04:23:43;124.18;;;7.65;;
40591;SDS011;26301;42.832;23.918;2023-06-14T04:26:10;117.63;;;7.30;;
40591;SDS011;26301;42.832;23.918;2023-06-14T04:28:36;97.82;;;5.65;;
40591;SDS011;26301;42.832;23.918;2023-06-14T04:31:08;87.85;;;5.43;;
40591;SDS011;26301;42.832;23.918;2023-06-14T04:33:36;82.57;;;4.95;;
40591;SDS011;26301;42.832;23.918;2023-06-14T04:36:09;98.85;;;5.70;;
40591;SDS011;26301;42.832;23.918;2023-06-14T04:38:37;155.73;;;6.97;;
40591;SDS011;26301;42.832;23.918;2023-06-14T04:41:06;215.95;;;7.40;;
40591;SDS011;26301;42.832;23.918;2023-06-14T04:43:37;198.18;;;7.65;;
40591;SDS011;26301;42.832;23.918;2023-06-14T04:46:06;104.90;;;10.13;;
40591;SDS011;26301;42.832;23.918;2023-06-14T04:48:36;190.55;;;8.02;;
40591;SDS011;26301;42.832;23.918;2023-06-14T04:51:04;203.10;;;7.50;;
40591;SDS011;26301;42.832;23.918;2023-06-14T04:53:33;162.23;;;6.55;;
40591;SDS011;26301;42.832;23.918;2023-06-14T04:55:59;144.95;;;10.38;;
40591;SDS011;26301;42.832;23.918;2023-06-14T04:58:26;264.38;;;9.10;;
40591;SDS011;26301;42.832;23.918;2023-06-14T05:00:53;288.10;;;9.00;;
40591;SDS011;26301;42.832;23.918;2023-06-14T05:03:21;127.55;;;5.30;;
40591;SDS011;26301;42.832;23.918;2023-06-14T05:05:49;107.70;;;5.45;;
40591;SDS011;26301;42.832;23.918;2023-06-14T05:08:16;134.18;;;6.13;;
40591;SDS011;26301;42.832;23.918;2023-06-14T05:10:42;186.70;;;6.38;;
40591;SDS011;26301;42.832;23.918;2023-06-14T05:13:08;104.68;;;4.97;;
40591;SDS011;26301;42.832;23.918;2023-06-14T05:15:35;43.85;;;3.90;;
40591;SDS011;26301;42.832;23.918;2023-06-14T05:18:01;93.47;;;5.10;;
40591;SDS011;26301;42.832;23.918;2023-06-14T05:20:28;51.42;;;4.45;;
40591;SDS011;26301;42.832;23.918;2023-06-14T05:22:55;25.65;;;4.05;;
40591;SDS011;26301;42.832;23.918;2023-06-14T05:25:22;52.40;;;4.70;;
40591;SDS011;26301;42.832;23.918;2023-06-14T05:27:48;43.78;;;4.10;;
40591;SDS011;26301;42.832;23.918;2023-06-14T05:30:16;40.80;;;4.72;;
40591;SDS011;26301;42.832;23.918;2023-06-14T05:32:42;15.77;;;3.90;;
40591;SDS011;26301;42.832;23.918;2023-06-14T05:35:08;5.47;;;4.20;;
40591;SDS011;26301;42.832;23.918;2023-06-14T05:37:36;5.47;;;3.47;;
40591;SDS011;26301;42.832;23.918;2023-06-14T05:40:02;6.43;;;4.18;;
40591;SDS011;26301;42.832;23.918;2023-06-14T05:42:33;6.88;;;4.05;;
40591;SDS011;26301;42.832;23.918;2023-06-14T05:44:58;4.93;;;3.30;;
40591;SDS011;26301;42.832;23.918;2023-06-14T05:47:25;8.15;;;4.20;;
40591;SDS011;26301;42.832;23.918;2023-06-14T05:49:52;5.00;;;4.00;;
40591;SDS011;26301;42.832;23.918;2023-06-14T05:52:20;71.78;;;4.53;;
40591;SDS011;26301;42.832;23.918;2023-06-14T05:54:46;122.78;;;5.50;;
40591;SDS011;26301;42.832;23.918;2023-06-14T05:57:13;46.33;;;4.88;;
40591;SDS011;26301;42.832;23.918;2023-06-14T05:59:38;63.33;;;5.28;;
40591;SDS011;26301;42.832;23.918;2023-06-14T06:02:05;29.77;;;3.33;;
40591;SDS011;26301;42.832;23.918;2023-06-14T06:04:31;41.22;;;3.75;;
40591;SDS011;26301;42.832;23.918;2023-06-14T06:06:57;17.67;;;3.17;;
40591;SDS011;26301;42.832;23.918;2023-06-14T06:09:23;8.90;;;3.85;;
40591;SDS011;26301;42.832;23.918;2023-06-14T06:11:53;9.25;;;4.15;;
40591;SDS011;26301;42.832;23.918;2023-06-14T06:14:21;5.60;;;4.32;;
40591;SDS011;26301;42.832;23.918;2023-06-14T06:16:47;7.72;;;3.97;;
40591;SDS011;26301;42.832;23.918;2023-06-14T06:19:13;4.50;;;3.30;;
40591;SDS011;26301;42.832;23.918;2023-06-14T06:21:39;4.88;;;3.50;;
40591;SDS011;26301;42.832;23.918;2023-06-14T06:24:06;5.75;;;3.90;;
40591;SDS011;26301;42.832;23.918;2023-06-14T06:26:32;4.38;;;3.60;;
40591;SDS011;26301;42.832;23.918;2023-06-14T06:28:58;4.93;;;3.30;;
40591;SDS011;26301;42.832;23.918;2023-06-14T06:31:24;4.30;;;3.42;;
40591;SDS011;26301;42.832;23.918;2023-06-14T06:47:35;3.45;;;2.50;;
40591;SDS011;26301;42.832;23.918;2023-06-14T06:50:00;7.25;;;4.32;;
40591;SDS011;26301;42.832;23.918;2023-06-14T06:52:26;3.58;;;2.72;;
40591;SDS011;26301;42.832;23.918;2023-06-14T06:54:52;4.57;;;2.30;;
40591;SDS011;26301;42.832;23.918;2023-06-14T06:57:21;13.40;;;10.57;;
40591;SDS011;26301;42.832;23.918;2023-06-14T06:59:48;8.23;;;6.57;;
40591;SDS011;26301;42.832;23.918;2023-06-14T07:02:15;3.80;;;3.17;;
40591;SDS011;26301;42.832;23.918;2023-06-14T07:04:43;3.75;;;2.70;;
40591;SDS011;26301;42.832;23.918;2023-06-14T07:07:09;3.97;;;3.03;;
40591;SDS011;26301;42.832;23.918;2023-06-14T07:09:35;3.15;;;2.75;;
40591;SDS011;26301;42.832;23.918;2023-06-14T07:12:02;4.63;;;3.30;;
40591;SDS011;26301;42.832;23.918;2023-06-14T07:14:28;5.10;;;4.15;;
40591;SDS011;26301;42.832;23.918;2023-06-14T07:16:55;4.10;;;3.13;;
40591;SDS011;26301;42.832;23.918;2023-06-14T07:19:21;7.20;;;3.60;;
40591;SDS011;26301;42.832;23.918;2023-06-14T07:21:47;3.58;;;2.95;;
40591;SDS011;26301;42.832;23.918;2023-06-14T07:24:13;4.30;;;2.90;;
40591;SDS011;26301;42.832;23.918;2023-06-14T07:26:40;5.05;;;3.22;;
40591;SDS011;26301;42.832;23.918;2023-06-14T07:29:06;3.53;;;2.78;;
40591;SDS011;26301;42.832;23.918;2023-06-14T07:31:33;5.07;;;3.30;;
40591;SDS011;26301;42.832;23.918;2023-06-14T07:33:59;6.68;;;3.45;;
40591;SDS011;26301;42.832;23.918;2023-06-14T07:36:25;4.35;;;3.35;;
40591;SDS011;26301;42.832;23.918;2023-06-14T07:38:51;5.55;;;3.60;;
40591;SDS011;26301;42.832;23.918;2023-06-14T07:41:19;4.20;;;3.40;;
40591;SDS011;26301;42.832;23.918;2023-06-14T07:43:52;5.50;;;3.47;;
40591;SDS011;26301;42.832;23.918;2023-06-14T07:46:18;4.70;;;3.88;;
40591;SDS011;26301;42.832;23.918;2023-06-14T07:48:45;5.65;;;4.00;;
40591;SDS011;26301;42.832;23.918;2023-06-14T07:51:11;5.63;;;4.20;;
40591;SDS011;26301;42.832;23.918;2023-06-14T07:53:41;5.88;;;4.07;;
40591;SDS011;26301;42.832;23.918;2023-06-14T07:56:07;5.05;;;3.97;;
40591;SDS011;26301;42.832;23.918;2023-06-14T07:58:33;5.65;;;4.10;;
40591;SDS011;26301;42.832;23.918;2023-06-14T08:00:59;5.30;;;4.00;;
40591;SDS011;26301;42.832;23.918;2023-06-14T08:03:28;5.18;;;4.65;;
40591;SDS011;26301;42.832;23.918;2023-06-14T08:05:56;5.47;;;4.60;;
40591;SDS011;26301;42.832;23.918;2023-06-14T08:08:21;5.35;;;4.60;;
40591;SDS011;26301;42.832;23.918;2023-06-14T08:10:47;5.45;;;4.72;;
40591;SDS011;26301;42.832;23.918;2023-06-14T08:13:13;5.13;;;4.40;;
40591;SDS011;26301;42.832;23.918;2023-06-14T08:15:39;5.50;;;4.90;;
40591;SDS011;26301;42.832;23.918;2023-06-14T08:18:06;5.20;;;4.70;;
40591;SDS011;26301;42.832;23.918;2023-06-14T08:20:32;5.65;;;4.45;;
40591;SDS011;26301;42.832;23.918;2023-06-14T08:23:00;5.22;;;4.07;;
40591;SDS011;26301;42.832;23.918;2023-06-14T08:25:29;5.30;;;4.40;;
40591;SDS011;26301;42.832;23.918;2023-06-14T08:27:56;6.78;;;4.80;;
40591;SDS011;26301;42.832;23.918;2023-06-14T08:30:23;5.90;;;5.00;;
40591;SDS011;26301;42.832;23.918;2023-06-14T08:32:49;5.93;;;5.00;;
40591;SDS011;26301;42.832;23.918;2023-06-14T08:35:16;5.68;;;5.05;;
40591;SDS011;26301;42.832;23.918;2023-06-14T08:37:43;6.45;;;5.30;;
40591;SDS011;26301;42.832;23.918;2023-06-14T08:40:23;5.57;;;4.88;;
40591;SDS011;26301;42.832;23.918;2023-06-14T08:42:50;6.75;;;5.10;;
40591;SDS011;26301;42.832;23.918;2023-06-14T08:45:18;5.53;;;4.95;;
40591;SDS011;26301;42.832;23.918;2023-06-14T08:47:46;6.00;;;5.07;;
40591;SDS011;26301;42.832;23.918;2023-06-14T08:50:19;6.43;;;5.43;;
40591;SDS011;26301;42.832;23.918;2023-06-14T08:52:53;6.03;;;4.70;;
40591;SDS011;26301;42.832;23.918;2023-06-14T08:55:28;7.03;;;4.90;;
40591;SDS011;26301;42.832;23.918;2023-06-14T08:57:55;8.10;;;4.90;;
40591;SDS011;26301;42.832;23.918;2023-06-14T09:00:23;5.32;;;4.75;;
40591;SDS011;26301;42.832;23.918;2023-06-14T09:02:51;6.70;;;5.80;;
40591;SDS011;26301;42.832;23.918;2023-06-14T09:05:23;6.50;;;5.00;;
40591;SDS011;26301;42.832;23.918;2023-06-14T09:07:50;6.35;;;5.00;;
40591;SDS011;26301;42.832;23.918;2023-06-14T09:10:16;8.07;;;5.40;;
40591;SDS011;26301;42.832;23.918;2023-06-14T09:12:43;5.82;;;5.20;;
40591;SDS011;26301;42.832;23.918;2023-06-14T09:15:09;6.90;;;5.00;;
40591;SDS011;26301;42.832;23.918;2023-06-14T09:17:36;6.43;;;5.40;;
40591;SDS011;26301;42.832;23.918;2023-06-14T09:20:02;6.57;;;5.18;;
40591;SDS011;26301;42.832;23.918;2023-06-14T09:22:34;6.43;;;4.72;;
40591;SDS011;26301;42.832;23.918;2023-06-14T09:25:01;7.53;;;5.18;;
40591;SDS011;26301;42.832;23.918;2023-06-14T09:27:28;7.13;;;5.25;;
40591;SDS011;26301;42.832;23.918;2023-06-14T09:29:55;6.15;;;4.68;;
40591;SDS011;26301;42.832;23.918;2023-06-14T09:32:21;6.30;;;5.30;;
40591;SDS011;26301;42.832;23.918;2023-06-14T09:34:48;5.97;;;4.80;;
40591;SDS011;26301;42.832;23.918;2023-06-14T09:37:26;6.38;;;5.10;;
40591;SDS011;26301;42.832;23.918;2023-06-14T09:39:56;6.20;;;4.97;;
40591;SDS011;26301;42.832;23.918;2023-06-14T09:42:22;5.88;;;5.22;;
40591;SDS011;26301;42.832;23.918;2023-06-14T09:44:53;5.10;;;4.60;;
40591;SDS011;26301;42.832;23.918;2023-06-14T09:47:20;5.00;;;4.25;;
40591;SDS011;26301;42.832;23.918;2023-06-14T09:49:48;9.07;;;4.85;;
40591;SDS011;26301;42.832;23.918;2023-06-14T09:52:19;6.82;;;5.05;;
40591;SDS011;26301;42.832;23.918;2023-06-14T09:54:46;5.60;;;4.32;;
40591;SDS011;26301;42.832;23.918;2023-06-14T09:57:17;5.57;;;4.97;;
40591;SDS011;26301;42.832;23.918;2023-06-14T09:59:48;5.43;;;4.50;;
40591;SDS011;26301;42.832;23.918;2023-06-14T10:02:31;5.25;;;4.60;;
40591;SDS011;26301;42.832;23.918;2023-06-14T10:05:04;8.77;;;4.93;;
40591;SDS011;26301;42.832;23.918;2023-06-14T10:07:41;5.57;;;4.50;;
40591;SDS011;26301;42.832;23.918;2023-06-14T10:10:10;4.88;;;3.95;;
40591;SDS011;26301;42.832;23.918;2023-06-14T10:12:36;4.85;;;4.35;;
40591;SDS011;26301;42.832;23.918;2023-06-14T10:15:03;5.78;;;4.63;;
40591;SDS011;26301;42.832;23.918;2023-06-14T10:23:17;5.03;;;4.53;;
40591;SDS011;26301;42.832;23.918;2023-06-14T10:25:49;6.47;;;4.50;;
40591;SDS011;26301;42.832;23.918;2023-06-14T10:28:21;4.72;;;4.22;;
40591;SDS011;26301;42.832;23.918;2023-06-14T10:31:21;4.80;;;4.38;;
40591;SDS011;26301;42.832;23.918;2023-06-14T10:33:50;4.60;;;4.20;;
40591;SDS011;26301;42.832;23.918;2023-06-14T10:41:25;7.75;;;4.75;;
40591;SDS011;26301;42.832;23.918;2023-06-14T10:44:10;5.55;;;4.63;;
40591;SDS011;26301;42.832;23.918;2023-06-14T10:46:39;5.32;;;4.55;;
40591;SDS011;26301;42.832;23.918;2023-06-14T10:49:05;7.60;;;5.68;;
40591;SDS011;26301;42.832;23.918;2023-06-14T10:51:38;5.72;;;5.13;;
40591;SDS011;26301;42.832;23.918;2023-06-14T10:54:14;6.10;;;4.63;;
40591;SDS011;26301;42.832;23.918;2023-06-14T10:59:14;7.50;;;5.03;;
40591;SDS011;26301;42.832;23.918;2023-06-14T11:01:57;5.35;;;4.85;;
40591;SDS011;26301;42.832;23.918;2023-06-14T11:04:44;5.25;;;4.75;;
40591;SDS011;26301;42.832;23.918;2023-06-14T11:12:51;6.50;;;5.38;;
40591;SDS011;26301;42.832;23.918;2023-06-14T11:15:20;5.93;;;5.32;;
40591;SDS011;26301;42.832;23.918;2023-06-14T11:17:52;6.45;;;5.10;;
40591;SDS011;26301;42.832;23.918;2023-06-14T11:20:24;7.65;;;4.85;;
40591;SDS011;26301;42.832;23.918;2023-06-14T11:22:51;5.78;;;4.95;;
40591;SDS011;26301;42.832;23.918;2023-06-14T11:25:18;5.47;;;4.30;;
40591;SDS011;26301;42.832;23.918;2023-06-14T11:27:45;5.00;;;4.50;;
40591;SDS011;26301;42.832;23.918;2023-06-14T11:30:12;6.90;;;5.15;;
40591;SDS011;26301;42.832;23.918;2023-06-14T11:32:39;7.68;;;5.38;;
40591;SDS011;26301;42.832;23.918;2023-06-14T11:35:06;5.35;;;4.60;;
40591;SDS011;26301;42.832;23.918;2023-06-14T11:37:35;6.50;;;4.88;;
40591;SDS011;26301;42.832;23.918;2023-06-14T11:40:06;6.95;;;5.20;;
40591;SDS011;26301;42.832;23.918;2023-06-14T11:42:33;6.28;;;5.68;;
40591;SDS011;26301;42.832;23.918;2023-06-14T11:45:00;5.55;;;4.93;;
40591;SDS011;26301;42.832;23.918;2023-06-14T11:47:36;7.97;;;5.55;;
40591;SDS011;26301;42.832;23.918;2023-06-14T11:50:04;6.28;;;5.57;;
40591;SDS011;26301;42.832;23.918;2023-06-14T11:52:36;6.35;;;5.07;;
40591;SDS011;26301;42.832;23.918;2023-06-14T11:55:02;7.57;;;5.47;;
40591;SDS011;26301;42.832;23.918;2023-06-14T11:57:35;6.43;;;5.40;;
40591;SDS011;26301;42.832;23.918;2023-06-14T12:00:04;6.93;;;5.32;;
40591;SDS011;26301;42.832;23.918;2023-06-14T12:02:37;6.72;;;5.80;;
40591;SDS011;26301;42.832;23.918;2023-06-14T12:05:05;7.15;;;5.53;;
40591;SDS011;26301;42.832;23.918;2023-06-14T12:07:36;13.27;;;5.22;;
40591;SDS011;26301;42.832;23.918;2023-06-14T12:10:09;7.97;;;5.22;;
40591;SDS011;26301;42.832;23.918;2023-06-14T12:12:39;7.93;;;5.30;;
40591;SDS011;26301;42.832;23.918;2023-06-14T12:15:06;6.32;;;5.68;;
40591;SDS011;26301;42.832;23.918;2023-06-14T12:17:33;6.25;;;5.57;;
40591;SDS011;26301;42.832;23.918;2023-06-14T12:20:08;6.60;;;6.00;;
40591;SDS011;26301;42.832;23.918;2023-06-14T12:22:36;11.75;;;6.00;;
40591;SDS011;26301;42.832;23.918;2023-06-14T12:25:03;7.93;;;5.32;;
40591;SDS011;26301;42.832;23.918;2023-06-14T12:27:30;5.95;;;5.05;;
40591;SDS011;26301;42.832;23.918;2023-06-14T12:29:58;9.00;;;5.47;;
40591;SDS011;26301;42.832;23.918;2023-06-14T12:32:31;6.28;;;5.25;;
40591;SDS011;26301;42.832;23.918;2023-06-14T12:34:57;6.43;;;5.38;;
40591;SDS011;26301;42.832;23.918;2023-06-14T12:37:24;7.75;;;5.43;;
40591;SDS011;26301;42.832;23.918;2023-06-14T12:39:50;6.50;;;5.85;;
40591;SDS011;26301;42.832;23.918;2023-06-14T12:42:16;7.20;;;5.35;;
40591;SDS011;26301;42.832;23.918;2023-06-14T12:44:43;5.63;;;5.03;;
40591;SDS011;26301;42.832;23.918;2023-06-14T12:47:09;6.68;;;5.50;;
40591;SDS011;26301;42.832;23.918;2023-06-14T12:49:35;5.20;;;4.43;;
40591;SDS011;26301;42.832;23.918;2023-06-14T12:52:02;7.45;;;5.03;;
40591;SDS011;26301;42.832;23.918;2023-06-14T12:54:28;5.15;;;4.63;;
40591;SDS011;26301;42.832;23.918;2023-06-14T12:56:55;7.13;;;5.72;;
40591;SDS011;26301;42.832;23.918;2023-06-14T12:59:21;7.30;;;4.70;;
40591;SDS011;26301;42.832;23.918;2023-06-14T13:01:47;6.82;;;5.00;;
40591;SDS011;26301;42.832;23.918;2023-06-14T13:04:15;5.50;;;4.88;;
40591;SDS011;26301;42.832;23.918;2023-06-14T13:06:42;5.70;;;5.05;;
40591;SDS011;26301;42.832;23.918;2023-06-14T13:09:08;5.53;;;4.95;;
40591;SDS011;26301;42.832;23.918;2023-06-14T13:11:34;7.28;;;4.97;;
40591;SDS011;26301;42.832;23.918;2023-06-14T13:14:01;8.02;;;5.10;;
40591;SDS011;26301;42.832;23.918;2023-06-14T13:16:27;5.65;;;4.78;;
40591;SDS011;26301;42.832;23.918;2023-06-14T13:18:53;5.82;;;4.60;;
40591;SDS011;26301;42.832;23.918;2023-06-14T13:21:22;6.55;;;5.22;;
40591;SDS011;26301;42.832;23.918;2023-06-14T13:23:48;6.93;;;5.55;;
40591;SDS011;26301;42.832;23.918;2023-06-14T13:26:14;6.35;;;5.15;;
40591;SDS011;26301;42.832;23.918;2023-06-14T13:28:43;5.95;;;4.93;;
40591;SDS011;26301;42.832;23.918;2023-06-14T13:31:09;5.93;;;5.10;;
40591;SDS011;26301;42.832;23.918;2023-06-14T13:33:35;5.70;;;4.93;;
40591;SDS011;26301;42.832;23.918;2023-06-14T13:36:02;7.38;;;4.53;;
40591;SDS011;26301;42.832;23.918;2023-06-14T13:38:28;7.95;;;5.00;;
40591;SDS011;26301;42.832;23.918;2023-06-14T13:40:54;6.50;;;5.22;;
40591;SDS011;26301;42.832;23.918;2023-06-14T13:43:20;5.95;;;5.30;;
40591;SDS011;26301;42.832;23.918;2023-06-14T13:45:48;7.43;;;5.72;;
40591;SDS011;26301;42.832;23.918;2023-06-14T13:48:14;6.03;;;5.15;;
40591;SDS011;26301;42.832;23.918;2023-06-14T13:50:40;7.00;;;5.00;;
40591;SDS011;26301;42.832;23.918;2023-06-14T13:53:06;7.78;;;5.30;;
40591;SDS011;26301;42.832;23.918;2023-06-14T13:55:33;6.18;;;5.55;;
40591;SDS011;26301;42.832;23.918;2023-06-14T13:57:59;7.57;;;5.35;;
40591;SDS011;26301;42.832;23.918;2023-06-14T14:00:26;5.50;;;4.68;;
40591;SDS011;26301;42.832;23.918;2023-06-14T14:02:52;6.40;;;4.68;;
40591;SDS011;26301;42.832;23.918;2023-06-14T14:05:19;7.47;;;5.32;;
40591;SDS011;26301;42.832;23.918;2023-06-14T14:07:46;5.68;;;5.07;;
40591;SDS011;26301;42.832;23.918;2023-06-14T14:10:12;7.20;;;5.10;;
40591;SDS011;26301;42.832;23.918;2023-06-14T14:12:39;6.80;;;4.90;;
40591;SDS011;26301;42.832;23.918;2023-06-14T14:15:05;7.32;;;5.40;;
40591;SDS011;26301;42.832;23.918;2023-06-14T14:17:40;7.30;;;4.82;;
40591;SDS011;26301;42.832;23.918;2023-06-14T14:20:07;6.55;;;4.95;;
40591;SDS011;26301;42.832;23.918;2023-06-14T14:22:33;7.78;;;4.80;;
40591;SDS011;26301;42.832;23.918;2023-06-14T14:24:59;5.95;;;4.82;;
40591;SDS011;26301;42.832;23.918;2023-06-14T14:27:24;9.77;;;5.82;;
40591;SDS011;26301;42.832;23.918;2023-06-14T14:29:51;5.70;;;4.95;;
40591;SDS011;26301;42.832;23.918;2023-06-14T14:32:17;41.40;;;8.98;;
40591;SDS011;26301;42.832;23.918;2023-06-14T14:34:45;7.32;;;6.10;;
40591;SDS011;26301;42.832;23.918;2023-06-14T14:37:11;10.80;;;5.53;;
40591;SDS011;26301;42.832;23.918;2023-06-14T14:39:40;5.60;;;5.00;;
40591;SDS011;26301;42.832;23.918;2023-06-14T14:42:06;6.07;;;5.28;;
40591;SDS011;26301;42.832;23.918;2023-06-14T14:44:33;7.00;;;5.07;;
40591;SDS011;26301;42.832;23.918;2023-06-14T14:47:01;6.88;;;5.28;;
40591;SDS011;26301;42.832;23.918;2023-06-14T14:49:28;9.70;;;5.60;;
40591;SDS011;26301;42.832;23.918;2023-06-14T14:51:55;13.65;;;5.30;;
40591;SDS011;26301;42.832;23.918;2023-06-14T14:54:21;7.55;;;5.30;;
40591;SDS011;26301;42.832;23.918;2023-06-14T14:56:50;6.63;;;5.82;;
40591;SDS011;26301;42.832;23.918;2023-06-14T14:59:17;81.85;;;13.77;;
40591;SDS011;26301;42.832;23.918;2023-06-14T15:01:44;13.38;;;6.25;;
40591;SDS011;26301;42.832;23.918;2023-06-14T15:04:10;10.52;;;6.72;;
40591;SDS011;26301;42.832;23.918;2023-06-14T15:06:37;8.43;;;6.25;;
40591;SDS011;26301;42.832;23.918;2023-06-14T15:09:06;10.85;;;7.30;;